createdAt,value
2017-09-04T00:01:28.936Z,5.10
2017-09-04T00:03:56.989Z,5.97
2017-09-04T00:06:25.071Z,5.97
2017-09-04T00:08:53.142Z,5.77
2017-09-04T00:11:21.211Z,6.43
2017-09-04T00:13:49.274Z,7.53
2017-09-04T00:16:17.338Z,6.30
2017-09-04T00:18:45.413Z,6.00
2017-09-04T00:21:13.471Z,6.13
2017-09-04T00:23:41.566Z,6.57
2017-09-04T00:26:09.624Z,5.80
2017-09-04T00:28:37.698Z,5.90
2017-09-04T00:31:05.758Z,7.00
2017-09-04T00:33:33.835Z,7.03
2017-09-04T00:36:01.884Z,6.30
2017-09-04T00:38:29.955Z,5.80
2017-09-04T00:40:58.015Z,6.90
2017-09-04T00:43:26.074Z,6.20
2017-09-04T00:45:54.146Z,5.90
2017-09-04T00:48:22.190Z,6.57
2017-09-04T00:50:51.025Z,6.43
2017-09-04T00:53:19.087Z,7.70
2017-09-04T00:55:47.154Z,5.43
2017-09-04T00:58:15.215Z,6.10
2017-09-04T01:00:43.266Z,6.60
2017-09-04T01:03:12.130Z,6.67
2017-09-04T01:05:40.196Z,6.30
2017-09-04T01:08:08.247Z,6.37
2017-09-04T01:10:36.311Z,6.10
2017-09-04T01:13:04.363Z,6.53
2017-09-04T01:15:32.440Z,6.90
2017-09-04T01:18:00.487Z,5.13
2017-09-04T01:20:28.580Z,6.33
2017-09-04T01:22:56.626Z,8.50
2017-09-04T01:25:24.690Z,7.17
2017-09-04T01:27:52.755Z,7.30
2017-09-04T01:30:20.827Z,7.00
2017-09-04T01:32:48.888Z,6.70
2017-09-04T01:35:16.958Z,6.63
2017-09-04T01:37:45.031Z,6.17
2017-09-04T01:40:13.107Z,7.23
2017-09-04T01:42:41.170Z,6.37
2017-09-04T01:45:09.242Z,6.43
2017-09-04T01:47:37.323Z,6.50
2017-09-04T01:50:05.390Z,6.00
2017-09-04T01:52:33.451Z,6.57
2017-09-04T01:55:01.506Z,5.70
2017-09-04T01:57:29.571Z,6.63
2017-09-04T01:59:57.636Z,8.30
2017-09-04T02:02:25.703Z,6.97
2017-09-04T02:04:53.772Z,6.57
2017-09-04T02:07:21.839Z,8.10
2017-09-04T02:09:49.906Z,7.23
2017-09-04T02:12:17.999Z,7.70
2017-09-04T02:14:46.064Z,7.00
2017-09-04T02:17:14.297Z,7.93
2017-09-04T02:19:42.470Z,6.47
2017-09-04T02:22:10.511Z,7.13
2017-09-04T02:24:38.582Z,8.93
2017-09-04T02:27:06.689Z,7.77
2017-09-04T02:29:34.758Z,7.67
2017-09-04T02:32:02.802Z,6.83
2017-09-04T02:34:30.874Z,7.43
2017-09-04T02:36:59.799Z,7.33
2017-09-04T02:39:27.867Z,7.10
2017-09-04T02:41:55.959Z,6.60
2017-09-04T02:44:24.047Z,6.77
2017-09-04T02:46:52.087Z,7.20
2017-09-04T02:49:20.161Z,7.03
2017-09-04T02:51:48.218Z,9.07
2017-09-04T02:54:16.287Z,6.00
2017-09-04T02:56:44.360Z,6.93
2017-09-04T02:59:12.447Z,6.73
2017-09-04T03:01:40.507Z,7.00
2017-09-04T03:04:08.587Z,8.67
2017-09-04T03:06:36.650Z,7.53
2017-09-04T03:09:04.717Z,6.77
2017-09-04T03:11:32.789Z,9.00
2017-09-04T03:14:00.855Z,6.83
2017-09-04T03:16:29.702Z,7.60
2017-09-04T03:18:57.767Z,7.70
2017-09-04T03:21:25.832Z,6.63
2017-09-04T03:23:53.906Z,7.10
2017-09-04T03:26:21.950Z,8.13
2017-09-04T03:28:50.023Z,6.50
2017-09-04T03:31:18.070Z,8.00
2017-09-04T03:33:46.135Z,8.30
2017-09-04T03:36:14.230Z,7.67
2017-09-04T03:38:42.263Z,7.60
2017-09-04T03:41:10.323Z,7.57
2017-09-04T03:43:38.409Z,7.90
2017-09-04T03:46:06.466Z,8.60
2017-09-04T03:48:34.546Z,7.80
2017-09-04T03:51:02.619Z,7.53
2017-09-04T03:53:30.691Z,8.87
2017-09-04T03:55:58.764Z,7.53
2017-09-04T03:58:26.851Z,7.70
2017-09-04T04:00:55.686Z,9.20
2017-09-04T04:03:23.888Z,9.30
2017-09-04T04:05:51.937Z,7.57
2017-09-04T04:08:20.032Z,8.13
2017-09-04T04:10:48.077Z,7.50
2017-09-04T04:13:16.119Z,8.10
2017-09-04T04:15:44.186Z,9.40
2017-09-04T04:18:12.308Z,11.30
2017-09-04T04:20:40.326Z,8.60
2017-09-04T04:23:08.405Z,13.47
2017-09-04T04:25:36.478Z,9.13
2017-09-04T04:28:04.543Z,8.10
2017-09-04T04:30:32.610Z,8.30
2017-09-04T04:33:00.658Z,8.57
2017-09-04T04:35:28.737Z,7.70
2017-09-04T04:37:56.787Z,10.63
2017-09-04T04:40:24.860Z,8.83
2017-09-04T04:42:52.967Z,12.93
2017-09-04T04:45:21.044Z,9.00
2017-09-04T04:47:49.117Z,10.17
2017-09-04T04:50:17.158Z,10.13
2017-09-04T04:52:45.227Z,11.43
2017-09-04T04:55:13.278Z,8.93
2017-09-04T04:57:41.350Z,9.17
2017-09-04T05:00:09.414Z,22.33
2017-09-04T05:02:37.495Z,8.80
2017-09-04T05:05:05.552Z,8.53
2017-09-04T05:07:34.367Z,8.77
2017-09-04T05:10:02.493Z,70.93
2017-09-04T05:12:30.539Z,12.83
2017-09-04T05:14:58.619Z,9.77
2017-09-04T05:17:26.663Z,9.13
2017-09-04T05:19:54.727Z,11.77
2017-09-04T05:22:23.616Z,15.50
2017-09-04T05:24:51.687Z,13.43
2017-09-04T05:27:19.718Z,16.50
2017-09-04T05:29:47.780Z,23.30
2017-09-04T05:32:15.897Z,60.43
2017-09-04T05:34:44.707Z,86.07
2017-09-04T05:37:12.784Z,64.17
2017-09-04T05:39:40.951Z,108.87
2017-09-04T05:42:09.018Z,41.27
2017-09-04T05:44:37.113Z,90.83
2017-09-04T05:47:05.173Z,69.60
2017-09-04T05:49:33.246Z,60.17
2017-09-04T05:52:01.311Z,51.63
2017-09-04T05:54:29.391Z,48.47
2017-09-04T05:56:57.516Z,30.43
2017-09-04T05:59:26.353Z,44.07
2017-09-04T06:01:54.418Z,29.13
2017-09-04T06:04:22.507Z,23.67
2017-09-04T06:06:50.562Z,25.37
2017-09-04T06:09:18.639Z,29.57
2017-09-04T06:11:46.728Z,25.47
2017-09-04T06:14:14.778Z,16.17
2017-09-04T06:16:42.834Z,13.03
2017-09-04T06:19:10.905Z,15.30
2017-09-04T06:21:38.971Z,16.97
2017-09-04T06:24:07.043Z,13.40
2017-09-04T06:26:35.111Z,37.23
2017-09-04T06:29:03.899Z,15.43
2017-09-04T06:31:31.978Z,27.00
2017-09-04T06:34:00.044Z,13.50
2017-09-04T06:36:28.127Z,23.63
2017-09-04T06:38:56.190Z,13.60
2017-09-04T06:41:24.262Z,13.50
2017-09-04T06:43:52.345Z,13.40
2017-09-04T06:46:20.415Z,13.43
2017-09-04T06:48:48.482Z,13.47
2017-09-04T06:51:16.547Z,16.30
2017-09-04T06:53:44.611Z,19.87
2017-09-04T06:56:12.686Z,14.97
2017-09-04T06:58:40.787Z,13.57
2017-09-04T07:01:08.866Z,14.50
2017-09-04T07:03:36.906Z,15.37
2017-09-04T07:06:04.994Z,13.50
2017-09-04T07:08:33.041Z,13.83
2017-09-04T07:11:01.119Z,13.17
2017-09-04T07:13:29.183Z,13.90
2017-09-04T07:15:57.258Z,13.67
2017-09-04T07:18:26.114Z,13.97
2017-09-04T07:20:54.180Z,16.00
2017-09-04T07:23:22.264Z,20.30
2017-09-04T07:25:50.328Z,14.83
2017-09-04T07:28:18.424Z,98.13
2017-09-04T07:30:46.506Z,15.90
2017-09-04T07:33:14.574Z,25.63
2017-09-04T07:35:42.645Z,17.40
2017-09-04T07:38:10.708Z,13.00
2017-09-04T07:40:38.780Z,13.47
2017-09-04T07:43:06.867Z,62.27
2017-09-04T07:45:34.942Z,14.20
2017-09-04T07:48:03.061Z,21.00
2017-09-04T07:50:31.142Z,13.23
2017-09-04T07:52:59.215Z,19.53
2017-09-04T07:55:27.282Z,43.20
2017-09-04T07:57:55.367Z,10.70
2017-09-04T08:00:23.437Z,10.70
2017-09-04T08:02:51.495Z,10.97
2017-09-04T08:05:19.571Z,13.93
2017-09-04T08:07:47.653Z,14.03
2017-09-04T08:10:15.732Z,11.00
2017-09-04T08:12:43.804Z,12.77
2017-09-04T08:15:11.885Z,10.13
2017-09-04T08:17:39.966Z,10.70
2017-09-04T08:20:08.037Z,10.97
2017-09-04T08:22:36.106Z,10.50
2017-09-04T08:25:04.168Z,10.43
2017-09-04T08:27:32.247Z,17.37
2017-09-04T08:30:00.351Z,18.43
2017-09-04T08:32:28.413Z,17.00
2017-09-04T08:34:56.494Z,13.53
2017-09-04T08:37:25.177Z,9.50
2017-09-04T08:39:53.240Z,9.67
2017-09-04T08:42:21.294Z,10.67
2017-09-04T08:44:49.399Z,31.07
2017-09-04T08:47:17.478Z,12.73
2017-09-04T08:49:45.539Z,9.57
2017-09-04T08:52:13.611Z,8.93
2017-09-04T08:54:41.706Z,8.70
2017-09-04T08:57:09.778Z,9.93
2017-09-04T08:59:37.868Z,10.17
2017-09-04T09:02:05.972Z,9.70
2017-09-04T09:04:34.018Z,10.20
2017-09-04T09:07:02.086Z,9.40
2017-09-04T09:09:30.211Z,9.40
2017-09-04T09:11:58.249Z,10.90
2017-09-04T09:14:26.326Z,10.27
2017-09-04T09:16:54.432Z,11.73
2017-09-04T09:19:22.498Z,12.10
2017-09-04T09:21:50.563Z,10.10
2017-09-04T09:24:18.625Z,9.50
2017-09-04T09:26:46.704Z,8.90
2017-09-04T09:29:14.751Z,8.37
2017-09-04T09:31:42.838Z,8.13
2017-09-04T09:34:10.891Z,7.23
2017-09-04T09:36:38.956Z,10.50
2017-09-04T09:39:07.044Z,6.40
2017-09-04T09:41:35.097Z,6.13
2017-09-04T09:44:03.167Z,8.60
2017-09-04T09:46:31.229Z,6.90
2017-09-04T09:48:59.291Z,5.63
2017-09-04T09:51:27.363Z,6.10
2017-09-04T09:53:55.460Z,10.90
2017-09-04T09:56:23.523Z,5.30
2017-09-04T09:58:51.592Z,5.63
2017-09-04T10:01:19.652Z,6.10
2017-09-04T10:03:47.708Z,5.20
2017-09-04T10:06:15.763Z,5.23
2017-09-04T10:08:43.818Z,5.20
2017-09-04T10:11:11.896Z,4.90
2017-09-04T10:13:39.945Z,18.23
2017-09-04T10:16:08.026Z,7.03
2017-09-04T10:18:36.089Z,5.00
2017-09-04T10:21:04.156Z,6.03
2017-09-04T10:23:33.092Z,4.70
2017-09-04T10:26:01.128Z,6.20
2017-09-04T10:28:29.214Z,5.23
2017-09-04T10:30:57.296Z,5.27
2017-09-04T10:33:25.368Z,5.67
2017-09-04T10:35:53.449Z,5.60
2017-09-04T10:38:21.515Z,6.07
2017-09-04T10:40:49.585Z,5.70
2017-09-04T10:43:17.652Z,4.87
2017-09-04T10:45:45.724Z,12.63
2017-09-04T10:48:13.796Z,8.30
2017-09-04T10:50:41.871Z,5.87
2017-09-04T10:53:09.939Z,4.97
2017-09-04T10:55:38.012Z,7.87
2017-09-04T10:58:06.079Z,5.23
2017-09-04T11:00:34.151Z,4.53
2017-09-04T11:03:02.223Z,4.53
2017-09-04T11:05:30.337Z,4.47
2017-09-04T11:07:59.072Z,14.00
2017-09-04T11:10:27.166Z,5.00
2017-09-04T11:12:55.244Z,7.33
2017-09-04T11:15:23.308Z,5.60
2017-09-04T11:17:51.379Z,4.27
2017-09-04T11:20:20.223Z,5.00
2017-09-04T11:22:48.271Z,6.63
2017-09-04T11:25:16.963Z,4.40
2017-09-04T11:27:45.036Z,3.87
2017-09-04T11:30:13.133Z,4.23
2017-09-04T11:32:41.180Z,4.80
2017-09-04T11:35:09.264Z,7.57
2017-09-04T11:37:37.311Z,4.00
2017-09-04T11:40:05.364Z,4.90
2017-09-04T11:42:33.430Z,5.00
2017-09-04T11:45:01.503Z,4.10
2017-09-04T11:47:29.590Z,4.00
2017-09-04T11:49:57.707Z,3.93
2017-09-04T11:52:25.781Z,4.27
2017-09-04T11:54:53.854Z,4.90
2017-09-04T11:57:21.903Z,5.60
2017-09-04T11:59:49.946Z,43.43
2017-09-04T12:02:18.096Z,6.43
2017-09-04T12:04:46.158Z,4.13
2017-09-04T12:07:15.059Z,4.70
2017-09-04T12:09:43.130Z,4.60
2017-09-04T12:12:11.956Z,3.40
2017-09-04T12:14:40.031Z,3.50
2017-09-04T12:17:08.101Z,4.00
2017-09-04T12:19:36.182Z,4.07
2017-09-04T12:22:04.236Z,4.43
2017-09-04T12:24:32.327Z,4.27
2017-09-04T12:27:00.515Z,5.77
2017-09-04T12:29:28.589Z,4.50
2017-09-04T12:31:56.658Z,4.13
2017-09-04T12:34:24.708Z,4.53
2017-09-04T12:36:53.619Z,3.20
2017-09-04T12:39:21.692Z,4.00
2017-09-04T12:41:49.764Z,3.57
2017-09-04T12:44:17.886Z,5.00
2017-09-04T12:46:45.955Z,4.83
2017-09-04T12:49:14.027Z,5.80
2017-09-04T12:51:42.131Z,4.53
2017-09-04T12:54:10.195Z,4.97
2017-09-04T13:46:07.806Z,7.80
2017-09-04T13:48:41.616Z,3.83
2017-09-04T14:04:56.860Z,4.37
2017-09-04T14:07:43.507Z,8.80
2017-09-04T14:10:17.160Z,4.63
2017-09-04T14:13:02.020Z,4.60
2017-09-04T14:15:45.775Z,4.47
2017-09-04T14:18:14.574Z,5.57
2017-09-04T14:20:42.647Z,4.20
2017-09-04T14:23:10.732Z,4.20
2017-09-04T14:25:38.787Z,4.37
2017-09-04T14:28:06.871Z,4.30
2017-09-04T14:30:34.915Z,4.90
2017-09-04T14:33:02.982Z,4.37
2017-09-04T14:35:31.037Z,4.80
2017-09-04T14:37:59.881Z,5.07
2017-09-04T14:40:42.834Z,3.60
2017-09-04T14:43:27.592Z,4.17
2017-09-04T14:46:00.335Z,4.07
2017-09-04T14:48:30.031Z,5.80
2017-09-04T14:50:58.088Z,4.63
2017-09-04T14:53:26.189Z,3.90
2017-09-04T14:55:54.246Z,3.90
2017-09-04T14:58:22.322Z,4.07
2017-09-04T15:00:50.401Z,16.20
2017-09-04T15:03:18.481Z,4.00
2017-09-04T15:05:46.571Z,4.23
2017-09-04T15:08:14.702Z,4.27
2017-09-04T15:10:42.782Z,3.57
2017-09-04T15:13:10.839Z,4.20
2017-09-04T15:15:38.920Z,3.57
2017-09-04T15:18:06.996Z,3.93
2017-09-04T15:20:35.075Z,2.90
2017-09-04T15:23:03.162Z,3.80
2017-09-04T15:25:31.576Z,3.67
2017-09-04T15:27:59.694Z,5.27
2017-09-04T15:30:27.738Z,3.57
2017-09-04T15:32:55.838Z,3.20
2017-09-04T15:35:23.888Z,3.50
2017-09-04T15:37:51.953Z,3.93
2017-09-04T15:40:20.014Z,3.70
2017-09-04T15:42:48.104Z,3.80
2017-09-04T15:45:16.160Z,3.87
2017-09-04T15:47:44.232Z,4.47
2017-09-04T15:50:12.291Z,5.20
2017-09-04T15:52:41.226Z,4.00
2017-09-04T15:55:09.297Z,4.27
2017-09-04T15:57:38.095Z,4.00
2017-09-04T16:00:06.230Z,4.00
2017-09-04T16:02:34.319Z,4.47
2017-09-04T16:05:02.423Z,4.10
2017-09-04T16:07:32.172Z,4.00
2017-09-04T16:10:00.253Z,4.30
2017-09-04T16:15:26.742Z,6.10
2017-09-04T16:18:10.535Z,6.30
2017-09-04T16:20:51.399Z,5.20
2017-09-04T16:23:35.811Z,4.50
2017-09-04T16:26:07.455Z,4.17
2017-09-04T16:28:46.731Z,5.57
2017-09-04T16:31:32.271Z,4.40
2017-09-04T16:34:03.442Z,5.60
2017-09-04T16:36:43.355Z,4.93
2017-09-04T16:39:22.309Z,7.20
2017-09-04T16:41:53.200Z,8.03
2017-09-04T16:44:22.190Z,5.93
2017-09-04T16:46:50.327Z,4.90
2017-09-04T16:49:19.198Z,5.30
2017-09-04T16:51:47.292Z,11.17
2017-09-04T16:54:18.916Z,26.90
2017-09-04T16:56:49.486Z,23.50
2017-09-04T16:59:18.515Z,16.43
2017-09-04T17:01:46.572Z,15.20
2017-09-04T17:04:14.695Z,9.30
2017-09-04T17:06:42.738Z,10.50
2017-09-04T17:09:13.587Z,5.27
2017-09-04T17:11:44.286Z,5.10
2017-09-04T17:14:13.106Z,5.30
2017-09-04T17:16:43.711Z,5.30
2017-09-04T17:19:13.775Z,5.40
2017-09-04T17:21:48.608Z,5.73
2017-09-04T17:24:17.526Z,6.00
2017-09-04T17:26:45.621Z,6.87
2017-09-04T17:29:13.695Z,7.00
2017-09-04T17:31:42.407Z,11.37
2017-09-04T17:34:10.473Z,15.73
2017-09-04T17:36:38.559Z,9.60
2017-09-04T17:39:07.361Z,10.30
2017-09-04T17:41:35.468Z,15.53
2017-09-04T17:44:03.552Z,12.90
2017-09-04T17:46:33.420Z,10.93
2017-09-04T17:49:01.469Z,15.30
2017-09-04T17:51:29.546Z,19.50
2017-09-04T17:53:57.623Z,15.60
2017-09-04T17:56:25.713Z,13.10
2017-09-04T17:58:53.792Z,58.63
2017-09-04T18:01:21.872Z,31.77
2017-09-04T18:03:50.001Z,18.40
2017-09-04T18:06:18.091Z,14.13
2017-09-04T18:08:46.163Z,7.13
2017-09-04T18:11:14.244Z,9.87
2017-09-04T18:13:42.355Z,18.03
2017-09-04T18:16:10.514Z,11.43
2017-09-04T18:18:38.573Z,10.23
2017-09-04T18:21:06.648Z,15.53
2017-09-04T18:23:34.717Z,8.67
2017-09-04T18:26:02.823Z,8.50
2017-09-04T18:28:30.869Z,6.03
2017-09-04T18:30:58.940Z,6.90
2017-09-04T18:33:27.020Z,8.40
2017-09-04T18:35:55.112Z,6.17
2017-09-04T18:38:23.186Z,6.40
2017-09-04T18:40:51.246Z,11.63
2017-09-04T18:43:19.370Z,6.90
2017-09-04T18:45:47.439Z,6.90
2017-09-04T18:48:15.543Z,11.63
2017-09-04T18:50:43.610Z,11.43
2017-09-04T18:53:11.695Z,9.87
2017-09-04T18:55:39.787Z,8.67
2017-09-04T18:58:07.858Z,6.93
2017-09-04T19:00:35.935Z,15.73
2017-09-04T19:03:04.101Z,28.00
2017-09-04T19:05:32.162Z,33.87
2017-09-04T19:08:00.258Z,29.87
2017-09-04T19:10:28.331Z,21.60
2017-09-04T19:12:56.426Z,13.73
2017-09-04T19:15:24.535Z,13.43
2017-09-04T19:17:53.379Z,27.90
2017-09-04T19:20:21.464Z,15.03
2017-09-04T19:22:49.881Z,10.93
2017-09-04T19:25:18.801Z,12.27
2017-09-04T19:27:46.887Z,11.77
2017-09-04T19:30:15.034Z,10.77
2017-09-04T19:32:43.700Z,20.03
2017-09-04T19:35:12.583Z,15.20
2017-09-04T19:37:40.633Z,9.23
2017-09-04T19:40:08.732Z,7.93
2017-09-04T19:42:37.557Z,12.77
2017-09-04T19:45:05.634Z,7.97
2017-09-04T19:47:33.736Z,5.60
2017-09-04T19:50:01.910Z,5.73
2017-09-04T19:52:29.988Z,8.93
2017-09-04T19:54:58.045Z,5.90
2017-09-04T19:57:26.101Z,5.60
2017-09-04T19:59:54.193Z,5.70
2017-09-04T20:02:22.310Z,6.13
2017-09-04T20:04:50.421Z,5.43
2017-09-04T20:07:18.624Z,6.10
2017-09-04T20:09:47.052Z,5.30
2017-09-04T20:12:15.120Z,7.17
2017-09-04T20:14:43.221Z,6.77
2017-09-04T20:17:11.267Z,8.23
2017-09-04T20:19:39.378Z,7.00
2017-09-04T20:22:07.474Z,7.80
2017-09-04T20:24:36.332Z,7.77
2017-09-04T20:29:38.792Z,10.03
2017-09-04T20:32:06.863Z,17.50
2017-09-04T20:34:34.967Z,10.63
2017-09-04T20:37:04.607Z,8.40
2017-09-04T20:39:32.674Z,8.13
2017-09-04T20:42:00.738Z,7.33
2017-09-04T20:44:28.803Z,6.40
2017-09-04T20:46:57.645Z,7.10
2017-09-04T20:49:25.736Z,7.37
2017-09-04T20:51:53.823Z,6.83
2017-09-04T20:54:21.887Z,16.03
2017-09-04T20:56:50.477Z,26.00
2017-09-04T20:59:18.541Z,36.10
2017-09-04T21:01:46.598Z,27.20
2017-09-04T21:04:14.666Z,23.20
2017-09-04T21:06:42.790Z,18.80
2017-09-04T21:09:10.886Z,13.50
2017-09-04T21:11:38.954Z,28.60
2017-09-04T21:14:07.026Z,24.60
2017-09-04T21:16:35.127Z,17.57
2017-09-04T21:19:03.198Z,11.40
2017-09-04T21:21:31.291Z,8.83
2017-09-04T21:23:59.360Z,8.50
2017-09-04T21:26:27.436Z,12.50
2017-09-04T21:28:55.500Z,9.50
2017-09-04T21:31:23.563Z,9.37
2017-09-04T21:33:52.387Z,9.53
2017-09-04T21:36:20.447Z,10.07
2017-09-04T21:38:48.534Z,7.53
2017-09-04T21:41:16.587Z,7.53
2017-09-04T21:43:44.658Z,7.77
2017-09-04T21:46:12.730Z,7.80
2017-09-04T21:48:40.803Z,6.43
2017-09-04T21:51:08.870Z,7.20
2017-09-04T21:53:36.935Z,6.57
2017-09-04T21:56:05.011Z,9.77
2017-09-04T21:58:33.068Z,7.43
2017-09-04T22:01:01.935Z,8.87
2017-09-04T22:03:30.007Z,7.70
2017-09-04T22:05:58.055Z,7.70
2017-09-04T22:08:26.137Z,7.43
2017-09-04T22:10:54.211Z,7.30
2017-09-04T22:13:22.271Z,7.60
2017-09-04T22:15:50.352Z,7.80
2017-09-04T22:18:18.427Z,7.87
2017-09-04T22:20:46.494Z,8.83
2017-09-04T22:23:14.578Z,7.63
2017-09-04T22:25:42.636Z,8.70
2017-09-04T22:28:10.743Z,7.60
2017-09-04T22:30:38.796Z,10.70
2017-09-04T22:33:06.874Z,8.10
2017-09-04T22:35:34.956Z,7.63
2017-09-04T22:38:03.028Z,9.80
2017-09-04T22:40:31.079Z,7.10
2017-09-04T22:42:59.150Z,7.20
2017-09-04T22:45:27.239Z,7.13
2017-09-04T22:47:55.341Z,7.50
2017-09-04T22:50:23.395Z,8.10
2017-09-04T22:52:51.462Z,8.17
2017-09-04T22:55:19.521Z,8.03
2017-09-04T22:57:47.603Z,8.70
2017-09-04T23:00:15.647Z,7.00
2017-09-04T23:02:43.767Z,7.67
2017-09-04T23:05:11.829Z,9.07
2017-09-04T23:07:39.899Z,8.73
2017-09-04T23:10:07.952Z,9.33
2017-09-04T23:12:36.012Z,9.70
2017-09-04T23:15:04.071Z,9.53
2017-09-04T23:17:32.147Z,7.33
2017-09-04T23:20:00.226Z,7.63
2017-09-04T23:22:28.279Z,7.93
2017-09-04T23:24:56.352Z,8.87
2017-09-04T23:27:25.191Z,8.00
2017-09-04T23:29:53.255Z,7.60
2017-09-04T23:32:21.334Z,8.20
2017-09-04T23:34:49.410Z,9.17
2017-09-04T23:37:17.466Z,8.20
2017-09-04T23:39:45.531Z,7.97
2017-09-04T23:42:13.590Z,8.60
2017-09-04T23:44:41.671Z,8.53
2017-09-04T23:47:09.754Z,7.27
2017-09-04T23:49:37.825Z,8.63
2017-09-04T23:52:05.874Z,8.00
2017-09-04T23:54:33.959Z,8.03
2017-09-04T23:57:02.028Z,8.27
2017-09-04T23:59:30.159Z,8.17
